createdAt,value
2018-12-11T00:01:15.452Z,2.27
2018-12-11T00:03:42.932Z,5.03
2018-12-11T00:06:10.399Z,2.23
2018-12-11T00:08:37.871Z,2.10
2018-12-11T00:11:05.371Z,3.07
2018-12-11T00:13:32.846Z,2.27
2018-12-11T00:16:00.318Z,2.50
2018-12-11T00:18:27.782Z,2.30
2018-12-11T00:20:55.280Z,2.83
2018-12-11T00:23:22.729Z,2.20
2018-12-11T00:25:50.166Z,2.33
2018-12-11T00:28:17.641Z,1.97
2018-12-11T00:30:45.101Z,2.40
2018-12-11T00:33:12.585Z,2.20
2018-12-11T00:35:40.056Z,2.47
2018-12-11T00:38:07.512Z,1.90
2018-12-11T00:40:35.026Z,2.70
2018-12-11T00:43:02.524Z,2.93
2018-12-11T00:45:29.998Z,3.83
2018-12-11T00:47:57.439Z,3.83
2018-12-11T00:50:24.890Z,2.23
2018-12-11T00:52:52.376Z,3.47
2018-12-11T00:55:19.839Z,4.00
2018-12-11T00:57:47.328Z,2.90
2018-12-11T01:00:14.833Z,2.80
2018-12-11T01:02:42.332Z,3.37
2018-12-11T01:05:09.845Z,3.50
2018-12-11T01:07:37.317Z,2.00
2018-12-11T01:10:07.256Z,3.27
2018-12-11T01:12:34.754Z,2.23
2018-12-11T01:15:02.259Z,2.50
2018-12-11T01:17:29.702Z,3.10
2018-12-11T01:19:57.188Z,2.80
2018-12-11T01:22:24.635Z,2.17
2018-12-11T01:24:52.110Z,2.83
2018-12-11T01:27:19.716Z,2.70
2018-12-11T01:29:47.202Z,2.10
2018-12-11T01:32:14.748Z,2.23
2018-12-11T01:34:42.209Z,2.90
2018-12-11T01:37:09.682Z,3.13
2018-12-11T01:39:37.371Z,2.37
2018-12-11T01:42:04.858Z,2.03
2018-12-11T01:44:32.345Z,2.70
2018-12-11T01:46:59.800Z,2.13
2018-12-11T01:49:27.264Z,1.93
2018-12-11T01:51:54.732Z,2.33
2018-12-11T01:54:22.186Z,3.10
2018-12-11T01:56:49.658Z,2.73
2018-12-11T01:59:17.106Z,2.87
2018-12-11T02:01:44.574Z,2.60
2018-12-11T02:04:12.018Z,3.10
2018-12-11T02:06:39.499Z,3.30
2018-12-11T02:09:07.062Z,3.87
2018-12-11T02:11:34.582Z,4.10
2018-12-11T02:14:02.044Z,4.03
2018-12-11T02:16:29.547Z,4.00
2018-12-11T02:18:57.008Z,3.63
2018-12-11T02:21:24.446Z,3.40
2018-12-11T02:23:51.891Z,2.77
2018-12-11T02:26:19.368Z,3.40
2018-12-11T02:28:46.845Z,4.60
2018-12-11T02:31:14.328Z,3.20
2018-12-11T02:33:41.901Z,4.00
2018-12-11T02:36:09.367Z,4.50
2018-12-11T02:38:36.889Z,5.40
2018-12-11T02:41:04.354Z,4.30
2018-12-11T02:43:32.075Z,3.70
2018-12-11T02:46:05.467Z,4.13
2018-12-11T02:48:33.025Z,4.53
2018-12-11T02:51:00.491Z,4.20
2018-12-11T02:53:28.110Z,4.70
2018-12-11T02:55:55.595Z,4.10
2018-12-11T02:58:23.056Z,4.50
2018-12-11T03:00:50.636Z,3.80
2018-12-11T03:03:18.074Z,4.70
2018-12-11T03:05:45.634Z,4.73
2018-12-11T03:08:13.100Z,3.37
2018-12-11T03:10:40.661Z,2.80
2018-12-11T03:13:08.122Z,4.73
2018-12-11T03:15:35.592Z,3.90
2018-12-11T03:18:03.079Z,4.73
2018-12-11T03:20:30.554Z,4.37
2018-12-11T03:22:58.028Z,4.90
2018-12-11T03:25:25.475Z,3.70
2018-12-11T03:27:52.947Z,5.10
2018-12-11T03:30:20.413Z,3.20
2018-12-11T03:32:48.223Z,3.60
2018-12-11T03:35:15.677Z,3.27
2018-12-11T03:37:43.171Z,3.90
2018-12-11T03:40:10.660Z,3.97
2018-12-11T03:42:38.124Z,3.53
2018-12-11T03:45:05.834Z,3.03
2018-12-11T03:47:33.292Z,4.57
2018-12-11T03:50:00.758Z,3.40
2018-12-11T03:52:28.314Z,2.80
2018-12-11T03:54:55.857Z,3.57
2018-12-11T03:57:23.322Z,3.70
2018-12-11T03:59:50.808Z,3.70
2018-12-11T04:02:18.279Z,3.00
2018-12-11T04:04:45.837Z,3.37
2018-12-11T04:07:13.304Z,2.53
2018-12-11T04:09:40.770Z,4.00
2018-12-11T04:12:08.339Z,3.80
2018-12-11T04:14:36.029Z,3.40
2018-12-11T04:17:03.597Z,3.77
2018-12-11T04:19:31.058Z,3.10
2018-12-11T04:21:58.534Z,3.30
2018-12-11T04:24:26.003Z,2.83
2018-12-11T04:26:53.476Z,3.00
2018-12-11T04:29:20.946Z,3.17
2018-12-11T04:31:48.625Z,2.90
2018-12-11T04:34:16.112Z,2.80
2018-12-11T04:36:43.694Z,2.33
2018-12-11T04:39:11.160Z,2.23
2018-12-11T04:41:38.639Z,2.43
2018-12-11T04:44:06.096Z,2.97
2018-12-11T04:46:33.533Z,2.70
2018-12-11T04:49:01.002Z,3.70
2018-12-11T04:51:28.479Z,3.33
2018-12-11T04:53:55.926Z,2.67
2018-12-11T04:56:23.382Z,2.83
2018-12-11T04:58:50.839Z,2.20
2018-12-11T05:01:18.346Z,1.90
2018-12-11T05:03:45.796Z,3.30
2018-12-11T05:06:13.261Z,2.63
2018-12-11T05:08:40.761Z,2.20
2018-12-11T05:11:08.310Z,3.43
2018-12-11T05:13:35.783Z,2.73
2018-12-11T05:16:03.328Z,3.30
2018-12-11T05:18:30.775Z,3.80
2018-12-11T05:20:58.235Z,4.10
2018-12-11T05:23:25.699Z,3.27
2018-12-11T05:25:53.206Z,3.70
2018-12-11T05:28:20.650Z,3.90
2018-12-11T05:30:48.127Z,5.20
2018-12-11T05:33:15.598Z,4.20
2018-12-11T05:35:43.051Z,3.70
2018-12-11T05:38:10.490Z,3.77
2018-12-11T05:40:37.965Z,3.70
2018-12-11T05:43:05.455Z,2.53
2018-12-11T05:45:32.932Z,3.23
2018-12-11T05:48:00.419Z,3.20
2018-12-11T05:50:27.882Z,2.97
2018-12-11T05:52:55.342Z,3.97
2018-12-11T05:55:22.814Z,3.13
2018-12-11T05:57:50.304Z,2.93
2018-12-11T06:00:17.771Z,2.80
2018-12-11T06:02:45.273Z,3.40
2018-12-11T06:05:12.747Z,2.20
2018-12-11T06:07:40.196Z,2.80
2018-12-11T06:10:07.775Z,2.20
2018-12-11T06:12:35.287Z,2.87
2018-12-11T06:15:03.106Z,2.83
2018-12-11T06:17:30.633Z,2.40
2018-12-11T06:19:58.078Z,2.13
2018-12-11T06:22:25.548Z,2.50
2018-12-11T06:24:53.341Z,2.87
2018-12-11T06:27:20.952Z,3.10
2018-12-11T06:29:48.536Z,2.90
2018-12-11T06:32:16.197Z,2.77
2018-12-11T06:34:43.855Z,1.60
2018-12-11T06:37:11.455Z,3.00
2018-12-11T06:39:39.022Z,3.57
2018-12-11T06:42:06.640Z,2.50
2018-12-11T06:44:35.270Z,3.47
2018-12-11T06:47:02.955Z,3.27
2018-12-11T06:49:30.437Z,2.70
2018-12-11T06:51:57.942Z,3.40
2018-12-11T06:54:25.444Z,3.63
2018-12-11T06:56:52.920Z,2.90
2018-12-11T06:59:20.375Z,3.30
2018-12-11T07:01:49.201Z,4.23
2018-12-11T07:04:16.664Z,3.77
2018-12-11T07:06:44.250Z,3.77
2018-12-11T07:09:11.819Z,3.60
2018-12-11T07:11:39.311Z,3.50
2018-12-11T07:14:06.771Z,2.93
2018-12-11T07:16:34.322Z,3.47
2018-12-11T07:19:01.825Z,3.57
2018-12-11T07:21:29.485Z,3.93
2018-12-11T07:23:56.946Z,3.70
2018-12-11T07:26:24.448Z,3.20
2018-12-11T07:28:51.894Z,2.53
2018-12-11T07:31:19.380Z,3.60
2018-12-11T07:33:50.890Z,4.53
2018-12-11T07:36:17.209Z,4.20
2018-12-11T07:38:44.654Z,3.50
2018-12-11T07:41:12.115Z,4.73
2018-12-11T07:43:39.661Z,6.07
2018-12-11T07:46:07.354Z,6.77
2018-12-11T07:48:34.916Z,5.93
2018-12-11T07:51:02.417Z,6.00
2018-12-11T07:53:29.880Z,6.03
2018-12-11T07:56:00.117Z,6.13
2018-12-11T07:58:26.823Z,6.00
2018-12-11T08:00:54.294Z,4.87
2018-12-11T08:03:21.773Z,5.70
2018-12-11T08:05:49.437Z,5.80
2018-12-11T08:08:16.993Z,5.80
2018-12-11T08:10:44.540Z,7.17
2018-12-11T08:13:12.000Z,8.03
2018-12-11T08:15:39.504Z,5.60
2018-12-11T08:18:07.020Z,7.07
2018-12-11T08:20:34.563Z,7.77
2018-12-11T08:23:02.040Z,7.60
2018-12-11T08:25:29.511Z,9.00
2018-12-11T08:27:56.960Z,7.33
2018-12-11T08:30:24.428Z,8.23
2018-12-11T08:32:51.914Z,8.40
2018-12-11T08:35:19.370Z,7.50
2018-12-11T08:37:47.099Z,7.97
2018-12-11T08:40:14.608Z,8.33
2018-12-11T08:42:42.116Z,8.27
2018-12-11T08:45:09.633Z,8.70
2018-12-11T08:47:37.145Z,8.67
2018-12-11T08:50:05.259Z,6.73
2018-12-11T08:52:32.907Z,8.57
2018-12-11T08:55:00.862Z,7.13
2018-12-11T08:57:28.456Z,8.17
2018-12-11T08:59:55.920Z,7.77
2018-12-11T09:02:23.400Z,7.80
2018-12-11T09:04:50.857Z,5.70
2018-12-11T09:07:18.572Z,6.90
2018-12-11T09:09:46.046Z,5.80
2018-12-11T09:12:13.569Z,6.73
2018-12-11T09:14:41.097Z,5.90
2018-12-11T09:17:10.187Z,6.23
2018-12-11T09:19:38.146Z,7.23
2018-12-11T09:22:05.642Z,6.00
2018-12-11T09:24:33.116Z,7.50
2018-12-11T09:27:00.728Z,8.50
2018-12-11T09:29:28.172Z,6.70
2018-12-11T09:31:55.627Z,7.57
2018-12-11T09:34:23.292Z,8.50
2018-12-11T09:36:50.800Z,7.33
2018-12-11T09:39:18.277Z,7.73
2018-12-11T09:41:45.788Z,13.63
2018-12-11T09:44:13.262Z,6.47
2018-12-11T09:46:40.721Z,6.50
2018-12-11T09:49:08.276Z,6.43
2018-12-11T09:51:35.763Z,7.20
2018-12-11T09:54:03.286Z,5.83
2018-12-11T09:56:30.769Z,6.27
2018-12-11T09:58:58.242Z,6.70
2018-12-11T10:01:25.736Z,6.87
2018-12-11T10:03:53.525Z,6.73
2018-12-11T10:06:21.020Z,5.67
2018-12-11T10:08:48.481Z,5.60
2018-12-11T10:11:15.921Z,6.80
2018-12-11T10:13:44.288Z,6.23
2018-12-11T10:16:11.802Z,5.20
2018-12-11T10:18:39.340Z,5.87
2018-12-11T10:21:06.808Z,5.83
2018-12-11T10:23:34.580Z,6.17
2018-12-11T10:26:02.109Z,6.03
2018-12-11T10:28:29.580Z,5.57
2018-12-11T10:30:57.389Z,3.63
2018-12-11T10:33:24.872Z,5.63
2018-12-11T10:35:52.346Z,5.10
2018-12-11T10:38:19.837Z,5.83
2018-12-11T10:40:47.341Z,6.00
2018-12-11T10:43:14.830Z,6.37
2018-12-11T10:45:42.352Z,5.90
2018-12-11T10:48:09.797Z,5.33
2018-12-11T10:50:37.250Z,5.30
2018-12-11T10:53:04.726Z,6.10
2018-12-11T10:55:32.201Z,5.83
2018-12-11T10:57:59.706Z,4.03
2018-12-11T11:00:32.881Z,4.87
2018-12-11T11:03:05.629Z,4.57
2018-12-11T11:05:33.516Z,5.80
2018-12-11T11:08:01.015Z,4.20
2018-12-11T11:10:28.506Z,4.13
2018-12-11T11:12:56.060Z,5.10
2018-12-11T11:15:23.548Z,4.43
2018-12-11T11:17:50.988Z,4.50
2018-12-11T11:20:18.475Z,4.57
2018-12-11T11:22:45.963Z,4.60
2018-12-11T11:25:13.562Z,4.60
2018-12-11T11:27:41.041Z,5.60
2018-12-11T11:30:08.872Z,4.77
2018-12-11T11:32:36.353Z,4.83
2018-12-11T11:35:04.850Z,4.80
2018-12-11T11:37:32.295Z,3.80
2018-12-11T11:39:59.758Z,6.03
2018-12-11T11:42:27.358Z,4.50
2018-12-11T11:44:54.952Z,4.40
2018-12-11T11:47:22.416Z,4.27
2018-12-11T11:49:49.971Z,3.77
2018-12-11T11:52:17.520Z,4.23
2018-12-11T11:54:44.995Z,3.50
2018-12-11T11:57:12.446Z,3.53
2018-12-11T11:59:39.910Z,3.43
2018-12-11T12:02:07.430Z,3.63
2018-12-11T12:04:34.893Z,3.73
2018-12-11T12:07:02.563Z,3.63
2018-12-11T12:09:30.101Z,2.10
2018-12-11T12:11:57.558Z,5.27
2018-12-11T12:14:25.130Z,5.50
2018-12-11T12:16:52.590Z,4.13
2018-12-11T12:19:20.077Z,4.00
2018-12-11T12:21:47.559Z,4.67
2018-12-11T12:24:15.001Z,3.00
2018-12-11T12:26:42.488Z,4.80
2018-12-11T12:29:10.299Z,5.20
2018-12-11T12:31:37.868Z,4.40
2018-12-11T12:34:05.339Z,4.30
2018-12-11T12:36:32.876Z,5.47
2018-12-11T12:39:01.006Z,4.67
2018-12-11T12:41:28.493Z,4.83
2018-12-11T12:43:55.972Z,5.00
2018-12-11T12:46:23.449Z,6.10
2018-12-11T12:48:50.925Z,5.50
2018-12-11T12:51:18.411Z,5.20
2018-12-11T12:53:45.917Z,5.60
2018-12-11T12:56:13.390Z,6.07
2018-12-11T12:58:40.860Z,4.80
2018-12-11T13:01:08.421Z,5.03
2018-12-11T13:03:36.092Z,4.07
2018-12-11T13:06:03.685Z,5.10
2018-12-11T13:08:31.257Z,5.70
2018-12-11T13:10:58.743Z,5.13
2018-12-11T13:13:26.230Z,5.67
2018-12-11T13:15:53.712Z,5.73
2018-12-11T13:18:21.180Z,5.30
2018-12-11T13:20:48.658Z,5.63
2018-12-11T13:23:16.125Z,5.03
2018-12-11T13:25:43.605Z,5.00
2018-12-11T13:28:11.069Z,5.83
2018-12-11T13:30:38.532Z,4.80
2018-12-11T13:33:05.979Z,9.07
2018-12-11T13:35:33.438Z,4.70
2018-12-11T13:38:00.889Z,7.00
2018-12-11T13:40:28.570Z,6.00
2018-12-11T13:42:56.081Z,6.50
2018-12-11T13:45:23.783Z,6.37
2018-12-11T13:47:51.250Z,7.00
2018-12-11T13:50:18.811Z,7.73
2018-12-11T13:52:46.291Z,7.80
2018-12-11T13:55:13.765Z,7.90
2018-12-11T13:57:41.237Z,8.50
2018-12-11T14:00:08.747Z,6.53
2018-12-11T14:02:36.228Z,6.90
2018-12-11T14:05:04.330Z,6.93
2018-12-11T14:07:32.828Z,7.23
2018-12-11T14:10:00.272Z,6.13
2018-12-11T14:12:27.729Z,6.40
2018-12-11T14:14:55.195Z,7.73
2018-12-11T14:17:22.720Z,14.80
2018-12-11T14:19:50.266Z,7.90
2018-12-11T14:22:17.747Z,7.37
2018-12-11T14:24:45.253Z,8.03
2018-12-11T14:27:12.721Z,7.90
2018-12-11T14:29:40.183Z,6.33
2018-12-11T14:32:07.669Z,8.30
2018-12-11T14:34:35.153Z,8.00
2018-12-11T14:37:02.639Z,8.63
2018-12-11T14:39:30.138Z,5.90
2018-12-11T14:41:57.600Z,7.33
2018-12-11T14:44:25.069Z,7.40
2018-12-11T14:46:52.793Z,7.70
2018-12-11T14:49:20.295Z,9.60
2018-12-11T14:51:47.758Z,8.57
2018-12-11T14:54:15.250Z,8.87
2018-12-11T14:56:42.735Z,7.27
2018-12-11T14:59:10.189Z,7.87
2018-12-11T15:01:37.671Z,7.27
2018-12-11T15:04:05.157Z,7.03
2018-12-11T15:06:33.254Z,6.47
2018-12-11T15:09:06.244Z,7.30
2018-12-11T15:11:33.716Z,6.83
2018-12-11T15:14:01.237Z,8.17
2018-12-11T15:16:28.696Z,7.40
2018-12-11T15:18:56.187Z,7.50
2018-12-11T15:21:23.627Z,7.00
2018-12-11T15:23:51.101Z,6.97
2018-12-11T15:26:18.561Z,6.47
2018-12-11T15:28:46.038Z,6.23
2018-12-11T15:31:13.506Z,6.53
2018-12-11T15:33:40.998Z,6.87
2018-12-11T15:36:08.512Z,6.90
2018-12-11T15:38:36.114Z,6.53
2018-12-11T15:41:03.667Z,7.10
2018-12-11T15:43:31.240Z,6.40
2018-12-11T15:46:01.073Z,5.30
2018-12-11T15:48:28.779Z,6.00
2018-12-11T15:50:56.284Z,4.50
2018-12-11T15:53:23.762Z,4.90
2018-12-11T15:55:51.242Z,5.67
2018-12-11T15:58:24.810Z,5.13
2018-12-11T16:00:48.237Z,5.47
2018-12-11T16:03:15.696Z,4.87
2018-12-11T16:05:43.225Z,4.80
2018-12-11T16:08:10.667Z,5.00
2018-12-11T16:10:38.368Z,5.77
2018-12-11T16:13:05.865Z,4.30
2018-12-11T16:15:33.309Z,6.33
2018-12-11T16:18:00.789Z,6.63
2018-12-11T16:20:28.255Z,6.83
2018-12-11T16:22:55.738Z,5.97
2018-12-11T16:25:23.211Z,5.90
2018-12-11T16:27:50.662Z,6.90
2018-12-11T16:30:18.154Z,7.43
2018-12-11T16:32:45.663Z,7.43
2018-12-11T16:35:13.136Z,6.60
2018-12-11T16:37:40.745Z,7.50
2018-12-11T16:40:08.240Z,6.70
2018-12-11T16:42:35.859Z,7.07
2018-12-11T16:45:03.847Z,4.70
2018-12-11T16:47:31.402Z,5.57
2018-12-11T16:49:58.854Z,7.73
2018-12-11T16:52:26.550Z,6.20
2018-12-11T16:54:54.042Z,6.13
2018-12-11T16:57:22.394Z,8.40
2018-12-11T16:59:49.843Z,7.40
2018-12-11T17:02:17.328Z,7.80
2018-12-11T17:04:44.835Z,8.67
2018-12-11T17:07:12.573Z,8.83
2018-12-11T17:09:41.570Z,8.50
2018-12-11T17:12:09.389Z,8.10
2018-12-11T17:14:36.856Z,10.20
2018-12-11T17:17:04.349Z,9.90
2018-12-11T17:19:31.873Z,11.10
2018-12-11T17:21:59.369Z,9.63
2018-12-11T17:24:26.914Z,11.67
2018-12-11T17:26:54.373Z,10.80
2018-12-11T17:29:24.406Z,10.00
2018-12-11T17:31:51.367Z,11.33
2018-12-11T17:34:18.830Z,10.60
2018-12-11T17:36:46.296Z,10.60
2018-12-11T17:39:13.768Z,9.70
2018-12-11T17:41:41.249Z,9.70
2018-12-11T17:44:08.746Z,9.50
2018-12-11T17:46:36.193Z,8.20
2018-12-11T17:49:03.707Z,9.10
2018-12-11T17:51:31.164Z,9.37
2018-12-11T17:53:58.666Z,10.23
2018-12-11T17:56:26.162Z,11.30
2018-12-11T17:58:53.636Z,11.23
2018-12-11T18:01:22.603Z,11.63
2018-12-11T18:03:50.058Z,8.90
2018-12-11T18:06:17.557Z,9.93
2018-12-11T18:08:45.220Z,10.83
2018-12-11T18:11:12.696Z,12.40
2018-12-11T18:13:40.179Z,10.93
2018-12-11T18:16:07.653Z,11.80
2018-12-11T18:18:35.146Z,11.30
2018-12-11T18:21:02.598Z,11.90
2018-12-11T18:23:30.054Z,9.50
2018-12-11T18:25:57.519Z,9.80
2018-12-11T18:28:25.014Z,10.13
2018-12-11T18:30:53.007Z,8.97
2018-12-11T18:33:20.494Z,9.30
2018-12-11T18:35:47.958Z,8.93
2018-12-11T18:38:15.458Z,8.23
2018-12-11T18:40:42.967Z,10.43
2018-12-11T18:43:10.751Z,11.27
2018-12-11T18:45:38.289Z,11.13
2018-12-11T18:48:05.748Z,10.50
2018-12-11T18:50:33.188Z,9.50
2018-12-11T18:53:00.633Z,10.87
2018-12-11T18:55:28.097Z,12.00
2018-12-11T18:57:55.551Z,9.50
2018-12-11T19:00:23.043Z,10.93
2018-12-11T19:05:10.270Z,9.47
2018-12-11T19:07:37.889Z,8.67
2018-12-11T19:10:05.951Z,7.70
2018-12-11T19:12:33.443Z,8.47
2018-12-11T19:15:04.768Z,6.63
2018-12-11T19:17:30.431Z,7.73
2018-12-11T19:19:57.870Z,8.00
2018-12-11T19:22:25.365Z,8.53
2018-12-11T19:24:52.832Z,7.43
2018-12-11T19:27:20.325Z,8.50
2018-12-11T19:29:47.847Z,9.73
2018-12-11T19:32:15.378Z,14.20
2018-12-11T19:34:42.820Z,8.87
2018-12-11T19:37:10.306Z,10.00
2018-12-11T19:39:37.840Z,10.73
2018-12-11T19:42:05.458Z,11.80
2018-12-11T19:44:32.919Z,10.40
2018-12-11T19:47:00.442Z,9.90
2018-12-11T19:49:27.885Z,10.83
2018-12-11T19:51:55.393Z,11.33
2018-12-11T19:54:22.862Z,9.80
2018-12-11T19:56:50.331Z,11.97
2018-12-11T19:59:17.768Z,12.30
2018-12-11T20:01:45.248Z,12.73
2018-12-11T20:04:13.011Z,10.43
2018-12-11T20:06:40.511Z,10.37
2018-12-11T20:09:08.070Z,8.80
2018-12-11T20:11:35.551Z,9.20
2018-12-11T20:14:03.041Z,8.77
2018-12-11T20:16:30.520Z,8.30
2018-12-11T20:18:57.971Z,8.30
2018-12-11T20:21:25.451Z,7.57
2018-12-11T20:23:52.939Z,5.23
2018-12-11T20:26:20.400Z,7.70
2018-12-11T20:28:47.862Z,7.53
2018-12-11T20:31:15.336Z,7.40
2018-12-11T20:33:42.795Z,7.63
2018-12-11T20:36:10.266Z,7.50
2018-12-11T20:38:37.817Z,7.40
2018-12-11T20:41:05.294Z,7.00
2018-12-11T20:43:32.769Z,6.43
2018-12-11T20:46:00.355Z,7.70
2018-12-11T20:48:27.948Z,7.67
2018-12-11T20:50:55.390Z,7.67
2018-12-11T20:53:22.874Z,9.97
2018-12-11T20:55:50.340Z,9.53
2018-12-11T20:58:17.844Z,9.70
2018-12-11T21:00:45.350Z,9.10
2018-12-11T21:03:12.813Z,8.90
2018-12-11T21:05:40.288Z,9.17
2018-12-11T21:08:07.809Z,8.37
2018-12-11T21:10:35.305Z,9.07
2018-12-11T21:13:02.786Z,14.17
2018-12-11T21:15:30.216Z,9.20
2018-12-11T21:17:57.704Z,8.20
2018-12-11T21:20:25.149Z,8.70
2018-12-11T21:22:52.620Z,10.17
2018-12-11T21:25:20.088Z,7.20
2018-12-11T21:27:47.556Z,8.43
2018-12-11T21:30:15.048Z,8.20
2018-12-11T21:32:42.553Z,17.10
2018-12-11T21:35:10.025Z,7.53
2018-12-11T21:37:37.484Z,6.43
2018-12-11T21:40:05.389Z,6.77
2018-12-11T21:42:32.867Z,7.17
2018-12-11T21:45:00.335Z,6.63
2018-12-11T21:47:27.778Z,7.47
2018-12-11T21:49:55.481Z,6.63
2018-12-11T21:52:22.946Z,8.67
2018-12-11T21:54:50.420Z,9.80
2018-12-11T21:57:17.882Z,9.80
2018-12-11T21:59:45.332Z,8.57
2018-12-11T22:02:12.796Z,10.50
2018-12-11T22:04:40.258Z,9.17
2018-12-11T22:07:07.727Z,9.57
2018-12-11T22:09:35.206Z,9.67
2018-12-11T22:12:03.781Z,9.73
2018-12-11T22:14:31.234Z,10.63
2018-12-11T22:16:58.690Z,10.17
2018-12-11T22:19:26.156Z,10.70
2018-12-11T22:21:54.562Z,11.33
2018-12-11T22:24:21.996Z,10.73
2018-12-11T22:26:49.444Z,8.67
2018-12-11T22:29:16.914Z,8.57
2018-12-11T22:31:44.703Z,8.87
2018-12-11T22:34:12.147Z,7.33
2018-12-11T22:36:39.611Z,8.87
2018-12-11T22:39:07.122Z,6.70
2018-12-11T22:41:34.804Z,6.80
2018-12-11T22:44:02.279Z,7.37
2018-12-11T22:46:29.761Z,8.47
2018-12-11T22:48:57.229Z,8.80
2018-12-11T22:51:25.029Z,7.80
2018-12-11T22:53:52.499Z,7.50
2018-12-11T22:56:19.956Z,6.57
2018-12-11T22:58:47.402Z,6.53
2018-12-11T23:01:14.970Z,5.57
2018-12-11T23:03:42.569Z,4.60
2018-12-11T23:06:10.740Z,11.10
2018-12-11T23:08:38.246Z,5.53
2018-12-11T23:11:05.950Z,5.83
2018-12-11T23:13:33.437Z,6.30
2018-12-11T23:16:00.920Z,6.37
2018-12-11T23:18:34.384Z,6.43
2018-12-11T23:21:07.317Z,6.47
2018-12-11T23:23:51.834Z,6.70
2018-12-11T23:26:19.302Z,6.97
2018-12-11T23:28:46.786Z,8.00
2018-12-11T23:31:14.269Z,6.80
2018-12-11T23:33:41.729Z,8.00
2018-12-11T23:36:10.082Z,8.00
2018-12-11T23:38:37.530Z,7.63
2018-12-11T23:41:05.011Z,7.57
2018-12-11T23:43:32.478Z,8.27
2018-12-11T23:45:59.933Z,9.80
2018-12-11T23:48:27.385Z,9.50
2018-12-11T23:50:55.059Z,7.60
2018-12-11T23:53:22.517Z,8.90
2018-12-11T23:55:50.206Z,7.80
2018-12-11T23:58:17.736Z,8.57
